Time;durP1;ratioP1;P1;durP2;ratioP2;P2;SDS_P1;SDS_P2;PMS_P1;PMS_P2;Temp;Humidity;BMP_temperature;BMP_pressure;BME280_temperature;BME280_humidity;BME280_pressure;Samples;Min_cycle;Max_cycle;Signal;HPM_P1;HPM_P2
2022/12/20 00:00:12;;;;;;;;;;;6.40;99.90;;;;;;5073723;28;19928;-63
2022/12/20 00:02:38;;;;;;;;;;;6.50;99.90;;;;;;5073568;28;19928;-63
2022/12/20 00:05:05;;;;;;;;;;;6.50;99.90;;;;;;5073460;28;19920;-62
2022/12/20 00:07:33;;;;;;;;;;;6.40;99.90;;;;;;5073632;28;19924;-63
2022/12/20 00:10:00;;;;;;;;;;;6.40;99.90;;;;;;5075121;28;19921;-63
2022/12/20 00:12:26;;;;;;;;;;;6.30;99.90;;;;;;5076147;28;19942;-62
2022/12/20 00:14:53;;;;;;;;;;;6.30;99.90;;;;;;5075335;28;19927;-62
2022/12/20 00:17:19;;;;;;;;;;;6.30;99.90;;;;;;5075969;28;19927;-62
2022/12/20 00:19:46;;;;;;;;;;;6.30;99.90;;;;;;5075039;28;19927;-63
2022/12/20 00:22:13;;;;;;;;;;;6.30;99.90;;;;;;5075074;28;20293;-63
2022/12/20 00:24:40;;;;;;;;;;;6.30;99.90;;;;;;5074708;28;19920;-62
2022/12/20 00:27:07;;;;;;;;;;;6.30;99.90;;;;;;5077727;28;19920;-63
2022/12/20 00:29:34;;;;;;;;;;;6.30;99.90;;;;;;5078445;28;19920;-62
2022/12/20 00:32:01;;;;;;;;;;;6.30;99.90;;;;;;5078424;28;19920;-62
2022/12/20 00:34:27;;;;;;;;;;;6.20;99.90;;;;;;5078343;28;19920;-62
2022/12/20 00:36:54;;;;;;;;;;;6.20;99.90;;;;;;5077440;28;19925;-63
2022/12/20 00:39:20;;;;;;;;;;;6.20;99.90;;;;;;5078144;28;20293;-63
2022/12/20 00:41:48;;;;;;;;;;;6.20;99.90;;;;;;5078532;28;19920;-62
2022/12/20 00:44:15;;;;;;;;;;;6.20;99.90;;;;;;5078013;28;19920;-62
2022/12/20 00:46:41;;;;;;;;;;;6.20;99.90;;;;;;5077864;28;20377;-62
2022/12/20 00:49:08;;;;;;;;;;;6.10;99.90;;;;;;5078288;28;19927;-63
2022/12/20 00:51:35;;;;;;;;;;;6.10;99.90;;;;;;5078486;28;19931;-62
2022/12/20 00:54:01;;;;;;;;;;;6.10;99.90;;;;;;5078604;28;19928;-62
2022/12/20 00:56:28;;;;;;;;;;;6.10;99.90;;;;;;5077336;28;20403;-63
2022/12/20 00:58:57;;;;;;;;;;;6.20;99.90;;;;;;5077834;28;19924;-64
2022/12/20 01:01:24;;;;;;;;;;;6.20;99.90;;;;;;5077660;28;19927;-62
2022/12/20 01:03:51;;;;;;;;;;;6.20;99.90;;;;;;5077804;28;19920;-62
2022/12/20 01:06:19;;;;;;;;;;;6.20;99.90;;;;;;5078052;28;19920;-62
2022/12/20 01:08:45;;;;;;;;;;;6.20;99.90;;;;;;5078834;28;19920;-62
2022/12/20 01:11:13;;;;;;;;;;;6.30;99.90;;;;;;5079111;28;20292;-62
2022/12/20 01:13:41;;;;;;;;;;;6.30;99.90;;;;;;5079364;28;19927;-62
2022/12/20 01:16:11;;;;;;;;;;;6.30;99.90;;;;;;5079657;28;20003;-62
2022/12/20 01:18:38;;;;;;;;;;;6.30;99.90;;;;;;5079762;28;19928;-63
2022/12/20 01:21:05;;;;;;;;;;;6.30;99.90;;;;;;5079193;28;19924;-63
2022/12/20 01:23:32;;;;;;;;;;;6.30;99.90;;;;;;5079100;28;19920;-62
2022/12/20 01:25:59;;;;;;;;;;;6.40;99.90;;;;;;5078785;28;19959;-63
2022/12/20 01:28:26;;;;;;;;;;;6.40;99.90;;;;;;5078208;28;19920;-63
2022/12/20 01:30:52;;;;;;;;;;;6.50;99.90;;;;;;5078480;28;19920;-62
2022/12/20 01:33:20;;;;;;;;;;;6.50;99.90;;;;;;5080438;28;19927;-61
2022/12/20 01:35:54;;;;;;;;;;;6.50;99.90;;;;;;5080135;28;19928;-63
2022/12/20 01:38:21;;;;;;;;;;;6.50;99.90;;;;;;5076789;28;19920;-62
2022/12/20 01:40:47;;;;;;;;;;;6.60;99.90;;;;;;5076306;28;19920;-62
2022/12/20 01:43:14;;;;;;;;;;;6.60;99.90;;;;;;5076478;28;19928;-62
2022/12/20 01:45:41;;;;;;;;;;;6.60;99.90;;;;;;5077048;28;19927;-62
2022/12/20 01:48:08;;;;;;;;;;;6.60;99.90;;;;;;5076955;28;20304;-62
2022/12/20 01:50:36;;;;;;;;;;;6.70;99.90;;;;;;5076403;28;19946;-63
2022/12/20 01:53:04;;;;;;;;;;;6.80;99.90;;;;;;5076397;28;19928;-62
2022/12/20 01:55:31;;;;;;;;;;;6.80;99.90;;;;;;5075632;28;19920;-61
2022/12/20 01:58:00;;;;;;;;;;;6.80;99.90;;;;;;5075817;28;19920;-62
2022/12/20 02:00:27;;;;;;;;;;;6.80;99.90;;;;;;5076064;28;19924;-63
2022/12/20 02:02:55;;;;;;;;;;;6.90;99.90;;;;;;5076047;28;19956;-63
2022/12/20 02:05:23;;;;;;;;;;;6.90;99.90;;;;;;5076160;28;19920;-62
2022/12/20 02:07:52;;;;;;;;;;;6.90;99.90;;;;;;5076491;28;20003;-62
2022/12/20 02:10:20;;;;;;;;;;;6.90;99.90;;;;;;5076012;28;19920;-62
2022/12/20 02:12:48;;;;;;;;;;;7.00;99.90;;;;;;5075710;28;20274;-62
2022/12/20 02:15:25;;;;;;;;;;;7.00;99.90;;;;;;5075427;28;19927;-64
2022/12/20 02:17:57;;;;;;;;;;;7.10;99.90;;;;;;5075300;28;19926;-63
2022/12/20 02:20:44;;;;;;;;;;;7.10;99.90;;;;;;5075323;28;20279;-63
2022/12/20 02:23:27;;;;;;;;;;;7.20;99.90;;;;;;5075153;28;20292;-63
2022/12/20 02:26:03;;;;;;;;;;;7.30;99.90;;;;;;5075077;28;19920;-63
2022/12/20 02:28:40;;;;;;;;;;;7.30;99.90;;;;;;5075061;28;19921;-63
2022/12/20 02:31:11;;;;;;;;;;;7.40;99.90;;;;;;5075208;28;20304;-63
2022/12/20 02:33:39;;;;;;;;;;;7.40;99.90;;;;;;5075190;28;19920;-63
2022/12/20 02:36:06;;;;;;;;;;;7.50;99.90;;;;;;5074917;28;19924;-62
2022/12/20 02:38:33;;;;;;;;;;;7.50;99.90;;;;;;5074889;28;19920;-63
2022/12/20 02:41:02;;;;;;;;;;;7.50;99.90;;;;;;5074988;28;19920;-62
2022/12/20 02:46:15;;;;;;;;;;;7.60;99.90;;;;;;5074629;28;19975;-62
2022/12/20 02:48:42;;;;;;;;;;;7.60;99.90;;;;;;5074262;28;19924;-61
2022/12/20 02:51:09;;;;;;;;;;;7.70;99.90;;;;;;5074131;28;20025;-60
2022/12/20 02:53:36;;;;;;;;;;;7.70;99.90;;;;;;5074414;28;19931;-62
2022/12/20 02:56:07;;;;;;;;;;;7.70;99.90;;;;;;5074292;28;19920;-61
2022/12/20 02:58:36;;;;;;;;;;;7.70;99.90;;;;;;5074425;28;19927;-62
2022/12/20 03:01:03;;;;;;;;;;;7.70;99.90;;;;;;5074497;28;19920;-63
2022/12/20 03:03:32;;;;;;;;;;;7.80;99.90;;;;;;5074497;28;19920;-61
2022/12/20 03:05:59;;;;;;;;;;;7.80;99.90;;;;;;5074357;28;19920;-62
2022/12/20 03:08:26;;;;;;;;;;;7.80;99.90;;;;;;5074567;28;19924;-62
2022/12/20 03:10:53;;;;;;;;;;;7.80;99.90;;;;;;5074893;28;19928;-61
2022/12/20 03:13:20;;;;;;;;;;;7.80;99.90;;;;;;5074165;28;19920;-63
2022/12/20 03:15:46;;;;;;;;;;;7.80;99.90;;;;;;5074046;28;19923;-61
2022/12/20 03:18:13;;;;;;;;;;;7.80;99.90;;;;;;5074069;28;19921;-62
2022/12/20 03:20:41;;;;;;;;;;;7.90;99.90;;;;;;5073827;28;20292;-61
2022/12/20 03:23:07;;;;;;;;;;;7.90;99.90;;;;;;5074108;28;19920;-62
2022/12/20 03:25:34;;;;;;;;;;;7.90;99.90;;;;;;5074067;28;19927;-62
2022/12/20 03:28:00;;;;;;;;;;;7.90;99.90;;;;;;5074094;28;19921;-62
2022/12/20 03:30:27;;;;;;;;;;;8.00;99.90;;;;;;5074100;28;19920;-63
2022/12/20 03:32:54;;;;;;;;;;;8.00;99.90;;;;;;5073917;28;19920;-62
2022/12/20 03:35:20;;;;;;;;;;;8.00;99.90;;;;;;5073852;28;19995;-61
2022/12/20 03:37:48;;;;;;;;;;;8.00;99.90;;;;;;5073799;28;19927;-63
2022/12/20 03:40:15;;;;;;;;;;;8.00;99.90;;;;;;5073894;28;19920;-62
2022/12/20 03:42:42;;;;;;;;;;;8.00;99.90;;;;;;5073765;28;19972;-62
2022/12/20 03:45:09;;;;;;;;;;;8.00;99.90;;;;;;5073437;28;20430;-63
2022/12/20 03:47:36;;;;;;;;;;;8.00;99.90;;;;;;5073346;28;20388;-62
2022/12/20 03:50:02;;;;;;;;;;;8.00;99.90;;;;;;5073767;28;20312;-62
2022/12/20 03:52:29;;;;;;;;;;;8.00;99.90;;;;;;5073800;28;19920;-63
2022/12/20 03:54:57;;;;;;;;;;;8.00;99.90;;;;;;5073736;28;19924;-61
2022/12/20 03:57:23;;;;;;;;;;;8.00;99.90;;;;;;5073322;28;19927;-61
2022/12/20 03:59:50;;;;;;;;;;;7.90;99.90;;;;;;5073574;28;19920;-62
2022/12/20 04:02:17;;;;;;;;;;;7.90;99.90;;;;;;5073236;28;19920;-63
2022/12/20 04:04:43;;;;;;;;;;;7.80;99.90;;;;;;5074199;28;19920;-63
2022/12/20 04:07:10;;;;;;;;;;;7.80;99.90;;;;;;5073845;28;19920;-63
2022/12/20 04:13:34;;;;;;;16.30;11.57;;;7.80;99.90;;;;;;5110051;28;20418;-61
2022/12/20 04:16:01;;;;;;;15.00;11.40;;;7.80;99.90;;;;;;5110655;28;20413;-63
2022/12/20 04:18:28;;;;;;;15.98;10.48;;;7.80;99.90;;;;;;5109713;28;20409;-63
2022/12/20 04:20:54;;;;;;;14.00;10.77;;;7.90;99.90;;;;;;5109962;28;20774;-63
2022/12/20 04:23:21;;;;;;;14.98;10.80;;;7.90;99.90;;;;;;5109712;28;20421;-62
2022/12/20 04:25:49;;;;;;;15.02;11.50;;;8.00;99.90;;;;;;5109591;28;20409;-61
2022/12/20 04:28:16;;;;;;;15.35;11.30;;;8.00;99.90;;;;;;5109605;28;20412;-62
2022/12/20 04:30:43;;;;;;;14.15;11.10;;;8.10;99.90;;;;;;5109478;28;20429;-63
2022/12/20 04:33:09;;;;;;;14.70;11.68;;;8.10;99.90;;;;;;5109692;28;20754;-63
2022/12/20 04:35:37;;;;;;;14.38;11.27;;;8.10;99.90;;;;;;5109549;28;20421;-62
2022/12/20 04:38:04;;;;;;;13.70;10.93;;;8.20;99.90;;;;;;5109363;28;20412;-63
2022/12/20 04:40:30;;;;;;;14.10;11.85;;;8.20;99.90;;;;;;5109439;28;20416;-64
2022/12/20 04:42:58;;;;;;;14.70;10.60;;;8.30;99.90;;;;;;5109424;28;20419;-63
2022/12/20 04:45:25;;;;;;;13.90;11.40;;;8.30;99.90;;;;;;5109061;28;20419;-64
2022/12/20 04:47:52;;;;;;;16.00;11.27;;;8.30;99.90;;;;;;5109166;28;20409;-64
2022/12/20 04:50:19;;;;;;;13.75;11.10;;;8.30;99.90;;;;;;5109065;28;20425;-63
2022/12/20 04:55:30;;;;;;;17.02;12.18;;;8.30;99.90;;;;;;5130510;22;20528;-62
2022/12/20 04:57:56;;;;;;;13.70;10.82;;;8.30;99.90;;;;;;5048638;28;20794;-63
2022/12/20 05:00:25;;;;;;;14.37;11.23;;;8.30;99.90;;;;;;5048939;28;20411;-62
2022/12/20 05:02:52;;;;;;;12.77;10.60;;;8.40;99.90;;;;;;5048796;28;20472;-62
2022/12/20 05:05:18;;;;;;;15.10;11.75;;;8.40;99.90;;;;;;5048571;28;20775;-62
2022/12/20 05:07:45;;;;;;;14.15;11.15;;;8.40;99.90;;;;;;5047969;28;20430;-62
2022/12/20 05:10:12;;;;;;;15.85;11.25;;;8.40;99.90;;;;;;5048780;28;20438;-62
2022/12/20 05:12:39;;;;;;;15.23;11.80;;;8.40;99.90;;;;;;5049049;28;20418;-62
2022/12/20 05:15:06;;;;;;;14.73;11.98;;;8.40;99.90;;;;;;5048529;28;20414;-62
2022/12/20 05:17:34;;;;;;;14.30;11.70;;;8.40;99.90;;;;;;5047447;28;20871;-62
2022/12/20 05:20:01;;;;;;;14.07;10.98;;;8.40;99.90;;;;;;5046236;28;20790;-63
2022/12/20 05:27:56;;;;;;;12.25;10.15;;;8.50;99.90;;;;;;5014868;28;20937;-62
2022/12/20 05:30:24;;;;;;;16.25;11.30;;;8.50;99.90;;;;;;5026592;28;20427;-63
2022/12/20 05:32:52;;;;;;;14.25;11.20;;;8.40;99.90;;;;;;5029312;28;20433;-62
2022/12/20 05:35:19;;;;;;;15.13;11.37;;;8.40;99.90;;;;;;5028742;28;20436;-62
2022/12/20 05:37:46;;;;;;;15.15;11.52;;;8.40;99.90;;;;;;5031832;28;20436;-62
2022/12/20 05:40:14;;;;;;;14.27;11.40;;;8.40;99.90;;;;;;5027117;28;20438;-63
2022/12/20 05:42:41;;;;;;;14.37;11.23;;;8.40;99.90;;;;;;5029722;28;20525;-62
2022/12/20 05:45:10;;;;;;;14.40;11.70;;;8.50;99.90;;;;;;5030306;28;20446;-64
2022/12/20 05:47:37;;;;;;;15.67;11.20;;;8.50;99.90;;;;;;5028292;28;21023;-65
2022/12/20 05:50:07;;;;;;;14.60;11.15;;;8.50;99.90;;;;;;5039376;28;21020;-62
2022/12/20 05:52:34;;;;;;;15.70;12.20;;;8.50;99.90;;;;;;5054235;28;20464;-62
2022/12/20 05:55:01;;;;;;;15.27;11.30;;;8.50;99.90;;;;;;5042606;28;20435;-62
2022/12/20 05:57:27;;;;;;;13.18;11.77;;;8.50;99.90;;;;;;5031447;28;20807;-62
2022/12/20 05:59:54;;;;;;;14.05;11.32;;;8.50;99.90;;;;;;5035743;28;20430;-62
2022/12/20 06:02:21;;;;;;;16.13;12.35;;;8.50;99.90;;;;;;5033133;28;20946;-62
2022/12/20 06:04:47;;;;;;;13.70;11.13;;;8.50;99.90;;;;;;5033191;28;20431;-63
2022/12/20 06:07:16;;;;;;;15.02;11.30;;;8.50;99.90;;;;;;5032419;28;20443;-62
2022/12/20 06:09:42;;;;;;;14.53;11.30;;;8.50;99.90;;;;;;5036351;28;20435;-62
2022/12/20 06:12:09;;;;;;;13.63;11.27;;;8.60;99.90;;;;;;5034178;28;20422;-61
2022/12/20 06:14:36;;;;;;;14.07;10.85;;;8.60;99.90;;;;;;5033767;28;20426;-62
2022/12/20 06:17:02;;;;;;;16.30;11.35;;;8.60;99.90;;;;;;5033732;28;20422;-62
2022/12/20 06:19:29;;;;;;;13.25;11.00;;;8.60;99.90;;;;;;5033601;28;20421;-61
2022/12/20 06:21:56;;;;;;;13.35;10.70;;;8.60;99.90;;;;;;5033931;28;20419;-63
2022/12/20 06:24:26;;;;;;;15.30;11.80;;;8.60;99.90;;;;;;5032687;28;20431;-63
2022/12/20 06:26:52;;;;;;;15.02;11.75;;;8.60;99.90;;;;;;5032950;28;20434;-63
2022/12/20 06:29:19;;;;;;;14.15;11.60;;;8.60;99.90;;;;;;5033757;28;20419;-62
2022/12/20 06:31:46;;;;;;;13.13;11.47;;;8.60;99.90;;;;;;5032955;28;20717;-62
2022/12/20 06:34:13;;;;;;;13.25;11.05;;;8.70;99.90;;;;;;5033268;28;20426;-62
2022/12/20 06:36:40;;;;;;;14.15;12.50;;;8.70;99.90;;;;;;5033477;28;20418;-62
2022/12/20 06:39:08;;;;;;;12.97;11.00;;;8.70;99.90;;;;;;5033635;28;20426;-62
2022/12/20 06:41:36;;;;;;;14.85;11.70;;;8.70;99.90;;;;;;5033879;28;20494;-61
2022/12/20 06:44:02;;;;;;;15.27;11.25;;;8.70;99.90;;;;;;5032806;28;20946;-63
2022/12/20 06:46:29;;;;;;;13.35;11.15;;;8.80;99.90;;;;;;5033226;28;20426;-61
2022/12/20 06:48:56;;;;;;;13.37;10.20;;;8.80;99.90;;;;;;5033199;28;20407;-61
2022/12/20 06:51:23;;;;;;;12.43;11.18;;;8.80;99.90;;;;;;5033681;28;20437;-63
2022/12/20 06:53:49;;;;;;;12.43;9.93;;;8.80;99.90;;;;;;5033410;28;20415;-63
2022/12/20 06:56:16;;;;;;;13.23;10.80;;;8.80;99.90;;;;;;5027799;28;20435;-62
2022/12/20 06:58:45;;;;;;;11.77;10.45;;;8.90;99.90;;;;;;5030453;28;20460;-61
2022/12/20 07:01:12;;;;;;;13.00;10.88;;;8.80;99.90;;;;;;5033307;28;20415;-62
2022/12/20 07:03:39;;;;;;;13.38;11.20;;;8.80;99.90;;;;;;5033591;28;20425;-63
2022/12/20 07:06:06;;;;;;;15.82;11.70;;;8.80;99.90;;;;;;5032476;28;20899;-63
2022/12/20 07:08:32;;;;;;;14.35;10.95;;;8.80;99.90;;;;;;5032655;28;20910;-62
2022/12/20 07:11:04;;;;;;;15.50;12.10;;;8.80;99.90;;;;;;5032939;28;20434;-62
2022/12/20 07:13:31;;;;;;;13.57;11.20;;;8.80;99.90;;;;;;5032939;28;20513;-62
2022/12/20 07:16:00;;;;;;;14.48;11.30;;;8.80;99.90;;;;;;5032729;28;20422;-62
2022/12/20 07:18:27;;;;;;;13.87;10.40;;;8.80;99.90;;;;;;5033116;28;20418;-61
2022/12/20 07:20:53;;;;;;;14.30;11.10;;;8.80;99.90;;;;;;5033002;28;20423;-62
2022/12/20 07:23:20;;;;;;;14.05;11.75;;;8.80;99.90;;;;;;5032821;28;20411;-62
2022/12/20 07:25:53;;;;;;;13.00;10.57;;;8.80;99.90;;;;;;5032913;28;20415;-62
2022/12/20 07:28:20;;;;;;;13.50;10.27;;;8.80;99.90;;;;;;5033080;28;20464;-62
2022/12/20 07:30:47;;;;;;;14.27;10.77;;;8.80;99.90;;;;;;5032987;28;20442;-62
2022/12/20 07:33:15;;;;;;;14.83;11.17;;;8.80;99.90;;;;;;5032981;28;20425;-62
2022/12/20 07:35:42;;;;;;;14.20;10.85;;;8.80;99.90;;;;;;5032443;28;20894;-63
2022/12/20 07:38:09;;;;;;;14.07;11.80;;;8.80;99.90;;;;;;5032874;28;20419;-62
2022/12/20 07:40:36;;;;;;;13.75;11.00;;;8.90;99.90;;;;;;5033088;28;20429;-62
2022/12/20 07:43:03;;;;;;;12.50;10.50;;;8.80;99.90;;;;;;5032969;28;20782;-62
2022/12/20 07:45:29;;;;;;;13.90;10.55;;;8.90;99.90;;;;;;5032200;28;20478;-63
2022/12/20 07:47:56;;;;;;;13.90;11.00;;;8.90;99.90;;;;;;5032365;28;20418;-62
2022/12/20 07:50:26;;;;;;;12.73;10.65;;;8.90;99.90;;;;;;5032039;28;20584;-62
2022/12/20 07:52:53;;;;;;;13.25;10.20;;;9.00;99.90;;;;;;5032352;28;20419;-61
2022/12/20 07:55:20;;;;;;;12.35;10.18;;;9.00;99.90;;;;;;5032025;28;20415;-62
2022/12/20 07:57:51;;;;;;;12.93;10.40;;;9.00;99.90;;;;;;5031446;28;20426;-63
2022/12/20 08:00:18;;;;;;;14.57;10.75;;;9.00;99.90;;;;;;5031982;28;20437;-61
2022/12/20 08:02:50;;;;;;;13.23;10.40;;;9.00;99.90;;;;;;5031958;28;20419;-62
2022/12/20 08:05:17;;;;;;;12.35;10.38;;;9.00;99.90;;;;;;5031614;28;20423;-62
2022/12/20 08:07:46;;;;;;;11.50;9.77;;;9.00;99.90;;;;;;5031581;28;20492;-62
2022/12/20 08:10:15;;;;;;;12.98;10.50;;;9.10;99.90;;;;;;5032004;28;20426;-62
2022/12/20 08:12:44;;;;;;;14.13;10.27;;;9.10;99.90;;;;;;5031758;28;20419;-62
2022/12/20 08:15:11;;;;;;;13.52;10.23;;;9.10;99.90;;;;;;5031792;28;20883;-62
2022/12/20 08:17:38;;;;;;;15.43;10.90;;;9.20;99.90;;;;;;5030922;28;20905;-62
2022/12/20 08:20:07;;;;;;;11.50;10.07;;;9.20;99.90;;;;;;5031761;28;20422;-62
2022/12/20 08:22:34;;;;;;;11.85;9.30;;;9.20;99.90;;;;;;5031828;28;20415;-62
2022/12/20 08:25:03;;;;;;;17.08;10.70;;;9.30;99.90;;;;;;5031767;28;20421;-63
2022/12/20 08:27:30;;;;;;;14.20;10.45;;;9.30;99.90;;;;;;5031275;28;20422;-63
2022/12/20 08:29:57;;;;;;;12.70;9.98;;;9.30;99.90;;;;;;5031459;28;20415;-62
2022/12/20 08:32:24;;;;;;;11.90;10.02;;;9.30;99.90;;;;;;5031386;28;20410;-62
2022/12/20 08:34:51;;;;;;;12.30;9.23;;;9.30;99.90;;;;;;5031430;28;20422;-62
2022/12/20 08:37:18;;;;;;;11.23;9.32;;;9.40;99.90;;;;;;5031438;28;20422;-62
2022/12/20 08:39:45;;;;;;;12.57;9.65;;;9.40;99.90;;;;;;5031340;28;20419;-63
2022/12/20 08:42:14;;;;;;;13.25;9.82;;;9.40;99.90;;;;;;5031667;28;20434;-62
2022/12/20 08:44:41;;;;;;;11.18;9.00;;;9.40;99.90;;;;;;5031427;28;20423;-62
2022/12/20 08:47:07;;;;;;;11.00;9.48;;;9.40;99.90;;;;;;5030767;28;20894;-62
2022/12/20 08:49:34;;;;;;;13.00;9.20;;;9.50;99.90;;;;;;5031247;28;20419;-64
2022/12/20 08:52:01;;;;;;;11.33;9.20;;;9.50;99.90;;;;;;5031565;28;20453;-62
2022/12/20 08:54:28;;;;;;;11.13;8.45;;;9.50;99.90;;;;;;5031030;28;20463;-62
2022/12/20 08:56:54;;;;;;;12.30;9.30;;;9.60;99.90;;;;;;5033222;28;20423;-62
2022/12/20 08:59:22;;;;;;;11.40;8.77;;;9.60;99.90;;;;;;5034973;28;20442;-63
2022/12/20 09:01:49;;;;;;;13.10;9.43;;;9.60;99.90;;;;;;5034630;28;20407;-62
2022/12/20 09:04:16;;;;;;;10.80;9.15;;;9.60;99.90;;;;;;5035481;28;20415;-62
2022/12/20 09:06:42;;;;;;;10.82;8.30;;;9.70;99.90;;;;;;5034801;28;20438;-63
2022/12/20 09:09:09;;;;;;;10.68;8.10;;;9.70;99.90;;;;;;5034943;28;20444;-62
2022/12/20 09:11:36;;;;;;;11.93;8.90;;;9.70;99.90;;;;;;5034458;28;20435;-63
2022/12/20 09:14:03;;;;;;;9.90;8.05;;;9.70;99.90;;;;;;5034837;28;20423;-63
2022/12/20 09:16:32;;;;;;;10.82;8.07;;;9.70;99.90;;;;;;5034551;28;20752;-63
2022/12/20 09:19:01;;;;;;;11.27;8.90;;;9.80;99.90;;;;;;5033893;28;20419;-63
2022/12/20 09:21:28;;;;;;;10.07;8.23;;;9.80;99.90;;;;;;5034183;28;20414;-62
2022/12/20 09:23:57;;;;;;;9.00;8.10;;;9.80;99.90;;;;;;5034502;28;20423;-63
2022/12/20 09:26:24;;;;;;;9.43;8.23;;;9.80;99.90;;;;;;5034041;28;20903;-62
2022/12/20 09:28:51;;;;;;;10.65;8.65;;;9.80;99.90;;;;;;5034132;28;20422;-63
2022/12/20 09:31:20;;;;;;;10.00;8.00;;;9.90;99.90;;;;;;5034488;28;20501;-62
2022/12/20 09:33:48;;;;;;;10.00;7.72;;;9.90;99.90;;;;;;5034450;28;20415;-63
2022/12/20 09:36:17;;;;;;;10.65;7.90;;;9.90;99.90;;;;;;5034291;28;20418;-63
2022/12/20 09:38:45;;;;;;;10.07;7.72;;;9.90;99.90;;;;;;5034069;28;20424;-63
2022/12/20 09:41:24;;;;;;;11.05;8.05;;;10.00;99.90;;;;;;5033976;28;20423;-62
2022/12/20 09:43:51;;;;;;;8.93;7.50;;;10.00;99.90;;;;;;5033878;28;20438;-61
2022/12/20 09:46:18;;;;;;;10.73;7.95;;;10.10;99.90;;;;;;5034007;28;20425;-63
2022/12/20 09:48:47;;;;;;;10.25;8.07;;;10.10;99.90;;;;;;5033829;28;20449;-62
2022/12/20 09:51:28;;;;;;;9.68;7.30;;;10.10;99.90;;;;;;5033898;28;20427;-62
2022/12/20 09:54:03;;;;;;;7.75;6.93;;;10.20;99.90;;;;;;5033538;28;20426;-61
2022/12/20 09:56:34;;;;;;;8.85;7.50;;;10.20;99.90;;;;;;5033269;28;20411;-62
2022/12/20 09:59:04;;;;;;;10.00;7.25;;;10.20;99.90;;;;;;5033846;28;20422;-62
2022/12/20 10:01:33;;;;;;;9.25;7.32;;;10.20;99.90;;;;;;5033917;28;20422;-63
2022/12/20 10:04:04;;;;;;;12.15;7.50;;;10.30;99.90;;;;;;5033536;28;20437;-63
2022/12/20 10:06:42;;;;;;;8.40;7.15;;;10.30;99.90;;;;;;5033293;28;20415;-63
2022/12/20 10:09:18;;;;;;;10.00;7.28;;;10.40;99.90;;;;;;5033200;28;20415;-62
2022/12/20 10:12:01;;;;;;;9.75;7.30;;;10.40;99.90;;;;;;5033211;28;20426;-61
2022/12/20 10:15:01;;;;;;;8.02;6.60;;;10.50;99.90;;;;;;5033379;28;20406;-62
2022/12/20 10:17:40;;;;;;;8.80;7.00;;;10.50;99.90;;;;;;5010840;28;20426;-64
2022/12/20 10:20:28;;;;;;;7.97;6.15;;;10.50;99.90;;;;;;5033314;28;20407;-63
2022/12/20 10:23:00;;;;;;;8.05;6.38;;;10.50;99.90;;;;;;5033625;28;20479;-62
2022/12/20 10:25:31;;;;;;;10.25;6.95;;;10.50;99.90;;;;;;5032973;28;20406;-63
2022/12/20 10:28:00;;;;;;;9.18;6.50;;;10.50;99.90;;;;;;5033139;28;20415;-63
2022/12/20 10:30:34;;;;;;;8.52;6.75;;;10.60;99.90;;;;;;5032731;28;20895;-63
2022/12/20 10:33:01;;;;;;;8.80;7.28;;;10.60;99.90;;;;;;5033303;28;20415;-62
2022/12/20 10:35:31;;;;;;;8.75;7.07;;;10.60;99.90;;;;;;5033244;28;20465;-63
2022/12/20 10:38:03;;;;;;;9.65;6.65;;;10.70;99.90;;;;;;5032669;28;20426;-62
2022/12/20 10:40:33;;;;;;;7.78;5.85;;;10.80;99.90;;;;;;5032650;28;20526;-62
2022/12/20 10:43:02;;;;;;;9.40;7.22;;;10.80;99.90;;;;;;5032592;28;20892;-63
2022/12/20 10:45:34;;;;;;;9.27;6.60;;;10.90;99.90;;;;;;5032620;28;20423;-62
2022/12/20 10:48:03;;;;;;;8.60;6.40;;;10.90;99.90;;;;;;5032591;28;20423;-62
2022/12/20 10:50:31;;;;;;;8.05;6.50;;;10.90;99.90;;;;;;5032214;28;20422;-61
2022/12/20 10:53:16;;;;;;;9.35;6.50;;;11.00;99.90;;;;;;5032008;28;20887;-60
2022/12/20 10:55:53;;;;;;;6.80;6.10;;;11.00;99.90;;;;;;5032430;28;20427;-60
2022/12/20 10:58:34;;;;;;;8.55;6.50;;;11.10;99.90;;;;;;5032525;28;20482;-62
2022/12/20 11:01:06;;;;;;;7.63;6.28;;;11.10;99.90;;;;;;5032921;28;20415;-62
2022/12/20 11:03:33;;;;;;;7.82;6.78;;;11.10;99.90;;;;;;5032392;28;20419;-62
2022/12/20 11:06:03;;;;;;;7.25;6.40;;;11.20;99.90;;;;;;5032094;28;20415;-62
2022/12/20 11:08:32;;;;;;;8.40;5.97;;;11.20;99.90;;;;;;5032495;28;20419;-63
2022/12/20 11:11:15;;;;;;;7.22;6.03;;;11.20;99.90;;;;;;5032367;28;20787;-61
2022/12/20 11:13:43;;;;;;;8.27;6.00;;;11.20;99.90;;;;;;5032419;28;20481;-63
2022/12/20 11:16:33;;;;;;;7.43;6.57;;;11.30;99.90;;;;;;5032452;28;20415;-63
2022/12/20 11:19:25;;;;;;;7.90;6.07;;;11.40;99.90;;;;;;5033315;28;20414;-63
2022/12/20 11:22:01;;;;;;;7.80;6.47;;;11.40;99.90;;;;;;5032278;28;20418;-62
2022/12/20 11:24:35;;;;;;;9.40;6.30;;;11.50;99.90;;;;;;5031905;28;20888;-62
2022/12/20 11:27:13;;;;;;;7.80;6.73;;;11.50;99.90;;;;;;5032532;28;20418;-62
2022/12/20 11:30:09;;;;;;;9.15;6.43;;;11.50;99.90;;;;;;5032550;28;20419;-61
2022/12/20 11:32:51;;;;;;;7.95;6.30;;;11.50;99.90;;;;;;5031753;28;20981;-62
2022/12/20 11:35:22;;;;;;;7.60;5.55;;;11.60;99.90;;;;;;5032087;28;20446;-61
2022/12/20 11:37:59;;;;;;;7.05;5.82;;;11.60;99.90;;;;;;5032214;28;20419;-62
2022/12/20 11:40:31;;;;;;;7.60;5.68;;;11.70;99.90;;;;;;5031883;28;20879;-61
2022/12/20 11:43:12;;;;;;;7.35;5.90;;;11.70;99.90;;;;;;5031814;28;20874;-63
2022/12/20 11:45:51;;;;;;;6.50;5.63;;;11.70;99.90;;;;;;5032288;28;20464;-63
2022/12/20 11:48:34;;;;;;;7.20;5.70;;;11.70;99.90;;;;;;5033094;28;20801;-64
2022/12/20 11:51:08;;;;;;;5.93;5.30;;;11.70;99.90;;;;;;5031689;28;20446;-62
2022/12/20 11:53:40;;;;;;;7.20;5.60;;;11.70;99.90;;;;;;5032177;28;20419;-62
2022/12/20 11:56:12;;;;;;;8.43;6.15;;;11.70;99.90;;;;;;5031610;28;20919;-63
2022/12/20 11:58:50;;;;;;;6.28;5.68;;;11.60;99.90;;;;;;5031662;28;20415;-62
2022/12/20 12:01:19;;;;;;;7.38;6.15;;;11.50;99.90;;;;;;5032757;28;20467;-62
2022/12/20 12:03:57;;;;;;;9.57;6.15;;;11.50;99.90;;;;;;5032991;28;20523;-64
2022/12/20 12:06:28;;;;;;;7.10;5.75;;;11.50;99.90;;;;;;5031775;28;20419;-62
2022/12/20 12:09:08;;;;;;;6.95;5.80;;;11.40;99.90;;;;;;5031743;28;20425;-64
2022/12/20 12:11:40;;;;;;;6.63;5.70;;;11.40;99.90;;;;;;5032033;28;20427;-62
2022/12/20 12:14:10;;;;;;;8.70;5.93;;;11.40;99.90;;;;;;5032504;28;20407;-63
2022/12/20 12:16:42;;;;;;;7.85;6.15;;;11.40;99.90;;;;;;5031945;28;20912;-61
2022/12/20 12:19:11;;;;;;;6.10;5.50;;;11.40;99.90;;;;;;5031965;28;20415;-62
2022/12/20 12:21:42;;;;;;;7.70;5.45;;;11.40;99.90;;;;;;5031705;28;20421;-62
2022/12/20 12:24:19;;;;;;;7.47;5.30;;;11.40;99.90;;;;;;5031956;28;20415;-62
2022/12/20 12:26:46;;;;;;;5.95;4.30;;;11.40;99.90;;;;;;5031569;28;20556;-63
2022/12/20 12:29:16;;;;;;;6.45;4.75;;;11.40;99.90;;;;;;5031858;28;20441;-62
2022/12/20 12:31:46;;;;;;;6.50;4.20;;;11.40;99.90;;;;;;5033674;28;20422;-63
2022/12/20 12:34:26;;;;;;;6.18;4.80;;;11.40;99.90;;;;;;5035436;28;20422;-62
2022/12/20 12:37:19;;;;;;;5.55;4.30;;;11.50;99.90;;;;;;5034603;28;20430;-63
2022/12/20 12:40:12;;;;;;;6.82;4.65;;;11.50;99.90;;;;;;5033092;28;20434;-63
2022/12/20 12:43:13;;;;;;;5.18;4.00;;;11.50;99.90;;;;;;5029414;28;20415;-63
2022/12/20 12:45:46;;;;;;;6.68;4.68;;;11.60;99.90;;;;;;5035392;28;20418;-60
2022/12/20 12:48:19;;;;;;;6.65;4.85;;;11.60;99.90;;;;;;5035197;28;20415;-63
2022/12/20 12:50:49;;;;;;;11.20;5.00;;;11.70;99.90;;;;;;5035202;28;20919;-63
2022/12/20 12:53:20;;;;;;;7.22;4.70;;;11.70;99.90;;;;;;5035139;28;20785;-62
2022/12/20 12:55:50;;;;;;;6.35;4.40;;;11.70;99.90;;;;;;5034696;28;20518;-63
2022/12/20 12:58:38;;;;;;;5.90;4.50;;;11.70;99.90;;;;;;5034837;28;20453;-62
2022/12/20 13:01:07;;;;;;;6.80;5.17;;;11.70;99.90;;;;;;5034904;28;20584;-63
2022/12/20 13:03:44;;;;;;;6.85;4.85;;;11.70;99.90;;;;;;5035053;28;20422;-64
2022/12/20 13:07:03;;;;;;;7.25;5.60;;;11.70;99.90;;;;;;5034629;28;20887;-62
2022/12/20 13:09:41;;;;;;;7.72;5.47;;;11.60;99.90;;;;;;5035226;28;20431;-67
2022/12/20 13:12:50;;;;;;;5.50;4.63;;;11.60;99.90;;;;;;5035043;28;20434;-62
2022/12/20 13:15:55;;;;;;;6.93;4.80;;;11.60;99.90;;;;;;5035247;28;20491;-62
2022/12/20 13:18:28;;;;;;;7.93;4.85;;;11.60;99.90;;;;;;5034989;28;20414;-62
2022/12/20 13:21:37;;;;;;;8.95;5.70;;;11.60;99.90;;;;;;5034577;28;20419;-62
2022/12/20 13:24:53;;;;;;;6.50;5.20;;;11.60;99.90;;;;;;5024010;28;20453;-63
2022/12/20 13:27:26;;;;;;;5.88;4.60;;;11.50;99.90;;;;;;5034615;28;20423;-63
2022/12/20 13:30:01;;;;;;;8.27;5.10;;;11.50;99.90;;;;;;5034562;28;20414;-64
2022/12/20 13:32:54;;;;;;;6.60;5.30;;;11.50;99.90;;;;;;5034292;28;20438;-62
2022/12/20 13:35:46;;;;;;;6.57;5.10;;;11.50;99.90;;;;;;5019589;28;20411;-64
2022/12/20 13:38:39;;;;;;;7.15;4.93;;;11.60;99.90;;;;;;5034059;28;20911;-62
2022/12/20 13:41:17;;;;;;;7.70;5.75;;;11.60;99.90;;;;;;5033577;28;20419;-63
2022/12/20 13:43:45;;;;;;;6.88;5.07;;;11.50;99.90;;;;;;5034066;28;20423;-63